Time;durP1;ratioP1;P1;durP2;ratioP2;P2;SDS_P1;SDS_P2;PMS_P1;PMS_P2;Temp;Humidity;BMP_temperature;BMP_pressure;BME280_temperature;BME280_humidity;BME280_pressure;Samples;Min_cycle;Max_cycle;Signal;HPM_P1;HPM_P2
2023/06/08 00:00:41;;;;;;;2.25;1.10;;;11.40;99.90;;;;;;4937346;28;20059;-69
2023/06/08 00:03:08;;;;;;;2.50;1.38;;;11.30;99.90;;;;;;4938141;28;20138;-67
2023/06/08 00:05:43;;;;;;;2.00;1.25;;;11.30;99.90;;;;;;4944362;28;20685;-65
2023/06/08 00:08:11;;;;;;;1.48;1.38;;;11.30;99.90;;;;;;4938261;28;20043;-61
2023/06/08 00:10:42;;;;;;;1.15;1.05;;;11.30;99.90;;;;;;4932290;28;20496;-73
2023/06/08 00:13:09;;;;;;;1.50;1.38;;;11.30;99.90;;;;;;4938843;28;20138;-70
2023/06/08 00:15:36;;;;;;;2.00;1.23;;;11.20;99.90;;;;;;4950729;28;20114;-60
2023/06/08 00:18:04;;;;;;;2.78;1.50;;;11.30;99.90;;;;;;4938763;28;20129;-63
2023/06/08 00:20:32;;;;;;;3.67;1.50;;;11.20;99.90;;;;;;4938034;28;20536;-61
2023/06/08 00:22:59;;;;;;;1.80;1.40;;;11.20;99.90;;;;;;4938133;28;20868;-64
2023/06/08 00:25:26;;;;;;;1.63;1.10;;;11.10;99.90;;;;;;4942839;28;20146;-65
2023/06/08 00:27:53;;;;;;;1.98;1.60;;;11.10;99.90;;;;;;4935577;28;20056;-64
2023/06/08 00:30:20;;;;;;;1.70;1.33;;;11.10;99.90;;;;;;4944256;28;21241;-61
2023/06/08 00:32:47;;;;;;;2.72;1.60;;;11.10;99.90;;;;;;4952893;28;20047;-68
2023/06/08 00:35:14;;;;;;;1.98;0.93;;;11.10;99.90;;;;;;4940445;28;20077;-61
2023/06/08 00:37:42;;;;;;;1.80;1.33;;;11.10;99.90;;;;;;4934826;28;20055;-66
2023/06/08 00:40:09;;;;;;;2.58;1.63;;;11.10;99.90;;;;;;4941084;28;20060;-65
2023/06/08 00:42:36;;;;;;;2.15;1.20;;;11.00;99.90;;;;;;4939470;28;20058;-72
2023/06/08 00:45:03;;;;;;;1.15;1.02;;;11.00;99.90;;;;;;4939022;28;20561;-63
2023/06/08 00:47:30;;;;;;;1.20;1.10;;;11.00;99.90;;;;;;4940198;28;20059;-63
2023/06/08 00:49:58;;;;;;;1.00;0.90;;;11.00;99.90;;;;;;4935041;28;20086;-66
2023/06/08 00:52:26;;;;;;;2.38;1.70;;;11.00;99.90;;;;;;4941506;28;20063;-64
2023/06/08 00:54:54;;;;;;;1.92;1.10;;;10.90;99.90;;;;;;4942196;28;20051;-61
2023/06/08 00:57:25;;;;;;;2.47;1.50;;;10.90;99.90;;;;;;4945622;28;20043;-64
2023/06/08 00:59:53;;;;;;;3.13;1.40;;;10.90;99.90;;;;;;4936361;28;20052;-63
2023/06/08 01:02:20;;;;;;;2.83;1.35;;;10.90;99.90;;;;;;4944690;28;20051;-65
2023/06/08 01:04:50;;;;;;;1.63;1.05;;;10.90;99.90;;;;;;4935701;28;20103;-64
2023/06/08 01:07:55;;;;;;;2.17;1.77;;;10.80;99.90;;;;;;4942082;28;20048;-60
2023/06/08 01:10:38;;;;;;;1.80;1.20;;;10.80;99.90;;;;;;4937310;28;20043;-63
2023/06/08 01:13:22;;;;;;;1.45;1.35;;;10.80;99.90;;;;;;4949556;28;20153;-66
2023/06/08 01:15:55;;;;;;;4.13;1.83;;;10.80;99.90;;;;;;4941317;28;20051;-62
2023/06/08 01:18:27;;;;;;;1.73;1.50;;;10.80;99.90;;;;;;4936178;28;21303;-61
2023/06/08 01:21:30;;;;;;;1.77;1.10;;;10.80;99.90;;;;;;4940210;28;20553;-69
2023/06/08 01:24:16;;;;;;;3.17;1.10;;;10.80;99.90;;;;;;4930050;28;20048;-62
2023/06/08 01:26:49;;;;;;;1.83;1.38;;;10.80;99.90;;;;;;4938889;28;20078;-65
2023/06/08 01:29:25;;;;;;;4.97;1.80;;;10.70;99.90;;;;;;4936399;28;20398;-66
2023/06/08 01:31:52;;;;;;;1.48;0.88;;;10.70;99.90;;;;;;4947383;28;20058;-65
2023/06/08 01:34:20;;;;;;;1.77;1.00;;;10.70;99.90;;;;;;4936834;28;20070;-67
2023/06/08 01:37:05;;;;;;;1.67;1.55;;;10.70;99.90;;;;;;4941554;28;20075;-73
2023/06/08 01:39:48;;;;;;;4.50;1.70;;;10.70;99.90;;;;;;4940624;28;20114;-60
2023/06/08 01:42:21;;;;;;;2.67;1.05;;;10.70;99.90;;;;;;4955289;28;20417;-62
2023/06/08 01:45:00;;;;;;;1.88;1.38;;;10.70;99.90;;;;;;4937958;28;20867;-69
2023/06/08 01:47:46;;;;;;;13.48;1.75;;;10.60;99.90;;;;;;4941425;28;20047;-64
2023/06/08 01:50:15;;;;;;;1.45;1.20;;;10.60;99.90;;;;;;4941940;28;20458;-66
2023/06/08 01:52:43;;;;;;;1.38;1.20;;;10.60;99.90;;;;;;4948691;28;20063;-68
2023/06/08 01:55:15;;;;;;;2.20;1.30;;;10.60;99.90;;;;;;4942815;28;20147;-66
2023/06/08 01:57:42;;;;;;;2.22;0.95;;;10.60;99.90;;;;;;4944719;28;20653;-65
2023/06/08 02:00:10;;;;;;;1.95;1.33;;;10.60;99.90;;;;;;4954118;28;20078;-63
2023/06/08 02:02:38;;;;;;;6.30;1.40;;;10.60;99.90;;;;;;4936589;28;20147;-63
2023/06/08 02:05:11;;;;;;;2.17;1.40;;;10.60;99.90;;;;;;4945283;28;20059;-64
2023/06/08 02:07:38;;;;;;;2.15;1.05;;;10.60;99.90;;;;;;4946418;28;20185;-63
2023/06/08 02:10:07;;;;;;;4.00;1.45;;;10.60;99.90;;;;;;4951665;28;20492;-63
2023/06/08 02:12:36;;;;;;;4.70;1.27;;;10.60;99.90;;;;;;4935994;28;20051;-71
2023/06/08 02:15:05;;;;;;;3.20;1.25;;;10.60;99.90;;;;;;4933874;28;20039;-62
2023/06/08 02:17:35;;;;;;;1.55;0.95;;;10.60;99.90;;;;;;4943103;28;20862;-67
2023/06/08 02:20:08;;;;;;;1.80;1.30;;;10.60;99.90;;;;;;4938984;28;20059;-61
2023/06/08 02:22:38;;;;;;;2.45;1.52;;;10.60;99.90;;;;;;4938882;28;20053;-65
2023/06/08 02:25:07;;;;;;;2.92;1.25;;;10.70;99.90;;;;;;4946488;28;20063;-71
2023/06/08 02:27:36;;;;;;;2.10;1.50;;;10.70;99.90;;;;;;4944027;28;20051;-68
2023/06/08 02:30:07;;;;;;;1.98;1.77;;;10.80;99.90;;;;;;4956345;28;20055;-67
2023/06/08 02:32:34;;;;;;;;;;;10.80;99.90;;;;;;4935715;28;20047;-73
2023/06/08 02:35:05;;;;;;;1.48;1.08;;;10.80;99.90;;;;;;4939766;28;20367;-65
2023/06/08 02:37:36;;;;;;;2.72;1.40;;;10.80;99.90;;;;;;4935368;28;20047;-69
2023/06/08 02:40:04;;;;;;;1.40;1.20;;;10.80;99.90;;;;;;4956908;28;20093;-61
2023/06/08 02:42:36;;;;;;;3.47;1.83;;;10.90;99.90;;;;;;4958292;28;20074;-65
2023/06/08 02:45:04;;;;;;;1.73;1.13;;;10.90;99.90;;;;;;4953700;28;20055;-67
2023/06/08 02:47:31;;;;;;;1.48;1.35;;;10.90;99.90;;;;;;4942143;28;20047;-70
2023/06/08 02:49:58;;;;;;;1.20;1.10;;;10.90;99.90;;;;;;4933700;28;20557;-61
2023/06/08 02:52:29;;;;;;;2.50;1.88;;;11.00;99.90;;;;;;4951167;28;20095;-65
2023/06/08 02:54:56;;;;;;;1.92;1.13;;;11.10;99.90;;;;;;4939962;28;20087;-63
2023/06/08 02:57:22;;;;;;;1.65;1.55;;;11.10;99.90;;;;;;4956542;28;20063;-68
2023/06/08 02:59:54;;;;;;;3.42;2.05;;;11.20;99.90;;;;;;4931207;28;20469;-73
2023/06/08 03:02:23;;;;;;;2.00;1.40;;;11.20;99.90;;;;;;4953279;28;20102;-66
2023/06/08 03:04:53;;;;;;;1.77;1.00;;;11.20;99.90;;;;;;4938121;28;20081;-61
2023/06/08 03:07:20;;;;;;;1.33;1.23;;;11.20;99.90;;;;;;4940318;28;20130;-65
2023/06/08 03:09:54;;;;;;;2.47;1.00;;;11.30;99.90;;;;;;4935462;28;20070;-61
2023/06/08 03:12:22;;;;;;;2.33;1.50;;;11.30;99.90;;;;;;4939256;28;20146;-62
2023/06/08 03:14:49;;;;;;;1.85;1.00;;;11.40;99.90;;;;;;4956061;28;20581;-60
2023/06/08 03:17:19;;;;;;;1.67;1.58;;;11.50;99.90;;;;;;4946640;28;20079;-65
2023/06/08 03:19:47;;;;;;;2.03;1.35;;;11.60;99.90;;;;;;4954097;28;20169;-61
2023/06/08 03:22:19;;;;;;;1.48;1.13;;;11.70;99.90;;;;;;4943582;28;20058;-67
2023/06/08 03:24:58;;;;;;;3.55;1.65;;;11.80;99.90;;;;;;4949245;28;20047;-61
2023/06/08 03:27:26;;;;;;;2.22;1.52;;;12.00;99.90;;;;;;4940465;28;20426;-61
2023/06/08 03:29:55;;;;;;;1.80;0.90;;;12.10;99.90;;;;;;4943738;28;20452;-62
2023/06/08 03:32:26;;;;;;;2.00;1.38;;;12.20;99.90;;;;;;4955294;28;20055;-71
2023/06/08 03:34:56;;;;;;;3.15;1.38;;;12.30;99.90;;;;;;4953789;28;20135;-65
2023/06/08 03:37:24;;;;;;;1.98;1.60;;;12.40;99.90;;;;;;4939090;28;20051;-61
2023/06/08 03:39:51;;;;;;;1.67;1.50;;;12.50;99.90;;;;;;4944897;28;20064;-66
2023/06/08 03:42:19;;;;;;;2.17;1.40;;;12.60;99.90;;;;;;4936445;28;20050;-67
2023/06/08 03:44:51;;;;;;;2.65;2.03;;;12.70;99.90;;;;;;4939383;28;20151;-63
2023/06/08 03:47:18;;;;;;;3.78;1.80;;;12.80;99.90;;;;;;4942480;28;20062;-64
2023/06/08 03:49:46;;;;;;;2.22;1.50;;;12.90;99.90;;;;;;4960831;28;20047;-65
2023/06/08 03:52:13;;;;;;;1.63;1.52;;;13.00;99.90;;;;;;4939195;28;20436;-64
2023/06/08 03:54:40;;;;;;;2.78;1.75;;;13.00;99.90;;;;;;4944776;28;20058;-71
2023/06/08 03:57:07;;;;;;;5.38;1.73;;;13.10;99.90;;;;;;4943135;28;20050;-63
2023/06/08 03:59:36;;;;;;;2.45;1.33;;;13.10;99.90;;;;;;4939977;28;20057;-60
2023/06/08 04:02:03;;;;;;;1.67;1.40;;;13.20;99.90;;;;;;4939053;28;20464;-64
2023/06/08 04:04:30;;;;;;;1.77;1.60;;;13.20;99.90;;;;;;4941954;28;20146;-61
2023/06/08 04:07:00;;;;;;;1.33;1.02;;;13.30;99.90;;;;;;4957922;28;20072;-68
2023/06/08 04:09:30;;;;;;;1.85;1.40;;;13.30;99.90;;;;;;4957859;28;20146;-60
2023/06/08 04:11:58;;;;;;;3.72;1.83;;;13.30;99.90;;;;;;4940184;28;20051;-67
2023/06/08 04:14:25;;;;;;;2.15;1.90;;;13.30;99.90;;;;;;4957562;28;20074;-60
2023/06/08 04:16:54;;;;;;;2.58;1.70;;;13.40;99.90;;;;;;4956415;28;20058;-79
2023/06/08 04:19:22;;;;;;;2.67;1.58;;;13.40;99.90;;;;;;4944818;28;20051;-66
2023/06/08 04:21:56;;;;;;;4.30;1.58;;;13.50;99.90;;;;;;4934196;28;20098;-71
2023/06/08 04:24:24;;;;;;;2.22;1.67;;;13.60;99.90;;;;;;4937858;28;20075;-61
2023/06/08 04:26:51;;;;;;;1.70;1.52;;;13.60;99.90;;;;;;4952742;28;20051;-65
2023/06/08 04:29:18;;;;;;;1.67;1.58;;;13.60;99.90;;;;;;4943112;28;20051;-71
2023/06/08 04:31:46;;;;;;;3.53;1.80;;;13.70;99.90;;;;;;4961491;28;20061;-72
2023/06/08 04:34:14;;;;;;;1.98;1.60;;;13.80;99.90;;;;;;4939714;28;20549;-64
2023/06/08 04:36:44;;;;;;;5.47;2.33;;;13.90;99.90;;;;;;4941786;28;20059;-67
2023/06/08 04:39:13;;;;;;;1.73;1.63;;;14.00;99.90;;;;;;4937723;28;20465;-68
2023/06/08 04:41:41;;;;;;;4.40;2.42;;;14.00;99.90;;;;;;4941219;28;20043;-61
2023/06/08 04:44:08;;;;;;;5.60;2.60;;;14.10;99.90;;;;;;4933454;28;20118;-67
2023/06/08 04:46:37;;;;;;;2.33;2.13;;;14.20;99.90;;;;;;4934830;28;20043;-65
2023/06/08 04:49:05;;;;;;;4.10;2.22;;;14.40;99.90;;;;;;4948417;28;20054;-63
2023/06/08 04:51:32;;;;;;;3.47;2.38;;;14.40;99.90;;;;;;4939160;28;20189;-70
2023/06/08 04:53:59;;;;;;;6.45;2.58;;;14.50;99.90;;;;;;4947006;28;20063;-61
2023/06/08 04:56:29;;;;;;;2.58;1.85;;;14.60;99.90;;;;;;4943238;28;20079;-61
2023/06/08 04:58:56;;;;;;;3.88;1.95;;;14.70;99.90;;;;;;4940283;28;20150;-61
2023/06/08 05:01:24;;;;;;;3.15;2.10;;;14.80;99.90;;;;;;4955260;28;20668;-65
2023/06/08 05:03:51;;;;;;;3.35;1.80;;;14.80;99.90;;;;;;4953447;28;20079;-66
2023/06/08 05:06:18;;;;;;;7.00;2.70;;;14.90;99.90;;;;;;4937247;28;20079;-60
2023/06/08 05:08:45;;;;;;;2.40;2.20;;;15.00;99.90;;;;;;4947644;28;20082;-64
2023/06/08 05:11:13;;;;;;;2.60;2.00;;;15.10;99.90;;;;;;4942899;28;20414;-61
2023/06/08 05:13:40;;;;;;;4.15;2.75;;;15.20;99.90;;;;;;4950734;28;20059;-61
2023/06/08 05:16:10;;;;;;;6.22;2.28;;;15.20;99.90;;;;;;4942902;28;20095;-70
2023/06/08 05:18:37;;;;;;;2.78;2.40;;;15.30;99.90;;;;;;4949505;28;20066;-66
2023/06/08 05:21:04;;;;;;;2.42;2.17;;;15.40;99.90;;;;;;4944525;28;20075;-61
2023/06/08 05:23:31;;;;;;;6.10;2.42;;;15.50;99.90;;;;;;4940414;28;20749;-66
2023/06/08 05:25:57;;;;;;;3.88;2.63;;;15.50;99.90;;;;;;4943718;28;20079;-71
2023/06/08 05:28:24;;;;;;;5.35;2.70;;;15.70;99.90;;;;;;4946959;28;20533;-64
2023/06/08 05:30:51;;;;;;;3.90;2.70;;;15.70;99.90;;;;;;4939158;28;20461;-68
2023/06/08 05:33:18;;;;;;;3.53;2.38;;;15.80;99.90;;;;;;4948847;28;20059;-68
2023/06/08 05:35:45;;;;;;;5.15;2.92;;;15.80;99.90;;;;;;4939614;28;20060;-66
2023/06/08 05:38:12;;;;;;;2.70;2.33;;;15.90;99.90;;;;;;4945755;28;20086;-63
2023/06/08 05:40:39;;;;;;;3.80;3.15;;;16.00;99.90;;;;;;4948396;28;20051;-66
2023/06/08 05:43:06;;;;;;;5.15;2.78;;;16.00;99.90;;;;;;4947672;28;20047;-63
2023/06/08 05:45:33;;;;;;;6.18;2.90;;;16.00;99.90;;;;;;4948461;28;20051;-74
2023/06/08 05:48:00;;;;;;;4.93;2.60;;;16.00;99.90;;;;;;4938793;28;20551;-60
2023/06/08 05:50:27;;;;;;;6.57;2.83;;;16.10;99.90;;;;;;4945307;28;20138;-62
2023/06/08 05:52:54;;;;;;;3.35;2.38;;;16.20;99.90;;;;;;4937413;28;20060;-66
2023/06/08 05:55:21;;;;;;;6.32;3.10;;;16.20;99.90;;;;;;4946327;28;20795;-68
2023/06/08 05:57:48;;;;;;;4.28;2.65;;;16.30;99.90;;;;;;4955336;28;20050;-67
2023/06/08 06:00:15;;;;;;;5.07;2.60;;;16.30;99.90;;;;;;4939983;28;20111;-64
2023/06/08 06:02:42;;;;;;;3.00;2.70;;;16.40;99.90;;;;;;4941775;28;20070;-67
2023/06/08 06:05:10;;;;;;;3.95;2.88;;;16.50;99.90;;;;;;4944807;28;20047;-61
2023/06/08 06:07:37;;;;;;;4.88;3.05;;;16.60;99.90;;;;;;4944079;28;20051;-69
2023/06/08 06:10:05;;;;;;;6.57;2.50;;;16.70;99.90;;;;;;4949480;28;20131;-65
2023/06/08 06:12:33;;;;;;;7.20;2.92;;;16.70;99.90;;;;;;4945173;28;20055;-68
2023/06/08 06:15:00;;;;;;;4.30;3.38;;;16.80;99.90;;;;;;4939655;28;20089;-60
2023/06/08 06:17:27;;;;;;;3.90;2.85;;;16.90;99.90;;;;;;4946015;28;20059;-71
2023/06/08 06:19:54;;;;;;;4.00;2.75;;;17.00;99.90;;;;;;4945477;28;20106;-60
2023/06/08 06:22:22;;;;;;;4.82;3.08;;;17.10;99.90;;;;;;4937709;28;20584;-66
2023/06/08 06:24:49;;;;;;;9.65;3.35;;;17.20;99.90;;;;;;4937322;28;20056;-61
2023/06/08 06:27:16;;;;;;;3.60;2.70;;;17.30;99.90;;;;;;4942050;28;20810;-65
2023/06/08 06:29:43;;;;;;;5.70;3.03;;;17.40;99.90;;;;;;4947251;28;20114;-64
2023/06/08 06:32:11;;;;;;;7.60;3.35;;;17.40;99.90;;;;;;4944577;28;20059;-60
2023/06/08 06:34:38;;;;;;;5.78;2.42;;;17.50;99.90;;;;;;4941852;28;20057;-67
2023/06/08 06:37:06;;;;;;;5.47;3.17;;;17.60;99.90;;;;;;4941117;28;20066;-63
2023/06/08 06:39:32;;;;;;;4.00;2.95;;;17.70;99.90;;;;;;4944931;28;20055;-66
2023/06/08 06:42:00;;;;;;;3.22;2.55;;;17.80;99.90;;;;;;4945364;28;20051;-63
2023/06/08 06:44:36;;;;;;;9.10;3.70;;;17.90;99.90;;;;;;4937259;28;20559;-61
2023/06/08 06:47:03;;;;;;;4.22;2.58;;;18.00;99.90;;;;;;4948583;28;20402;-62
2023/06/08 06:49:30;;;;;;;5.72;3.40;;;18.10;99.90;;;;;;4945500;28;20087;-65
2023/06/08 06:51:57;;;;;;;4.00;2.50;;;18.20;99.90;;;;;;4942410;28;20100;-67
2023/06/08 06:54:24;;;;;;;6.22;3.97;;;18.30;99.90;;;;;;4944847;28;20093;-64
2023/06/08 06:56:51;;;;;;;6.80;3.80;;;18.40;99.90;;;;;;4943501;28;20507;-61
2023/06/08 06:59:20;;;;;;;3.45;2.85;;;18.40;99.90;;;;;;4941539;28;20076;-62
2023/06/08 07:01:47;;;;;;;4.13;2.78;;;18.50;99.90;;;;;;4947090;28;20623;-61
2023/06/08 07:04:15;;;;;;;4.57;3.00;;;18.60;99.90;;;;;;4944818;28;20059;-60
2023/06/08 07:06:43;;;;;;;2.75;2.28;;;18.70;99.90;;;;;;4939196;28;20043;-64
2023/06/08 07:09:10;;;;;;;4.03;3.15;;;18.80;99.90;;;;;;4939758;28;20477;-64
2023/06/08 07:11:37;;;;;;;4.40;3.67;;;18.80;99.90;;;;;;4947552;28;20066;-61
2023/06/08 07:14:03;;;;;;;6.85;3.13;;;19.00;99.90;;;;;;4947139;28;20105;-66
2023/06/08 07:16:30;;;;;;;5.95;3.15;;;19.00;98.70;;;;;;4944283;28;20079;-68
2023/06/08 07:18:58;;;;;;;4.68;3.83;;;19.10;99.20;;;;;;4947913;28;20569;-69
2023/06/08 07:21:25;;;;;;;5.63;3.95;;;19.20;98.80;;;;;;4939952;28;20075;-65
2023/06/08 07:24:02;;;;;;;3.50;3.20;;;19.30;98.30;;;;;;4942743;28;20058;-63
2023/06/08 07:26:48;;;;;;;5.22;3.10;;;19.20;98.10;;;;;;4941627;28;20127;-64
2023/06/08 07:29:15;;;;;;;4.03;3.38;;;19.20;98.10;;;;;;4950673;28;20420;-66
2023/06/08 07:31:42;;;;;;;5.95;3.22;;;19.30;97.80;;;;;;4944990;28;20058;-65
2023/06/08 07:34:09;;;;;;;3.40;3.10;;;19.40;97.70;;;;;;4937035;28;20058;-71
2023/06/08 07:36:36;;;;;;;5.03;3.20;;;19.40;97.80;;;;;;4945144;28;20055;-66
2023/06/08 07:39:04;;;;;;;4.75;2.40;;;19.50;97.60;;;;;;4945008;28;20060;-64
2023/06/08 07:41:31;;;;;;;3.47;3.13;;;19.50;96.70;;;;;;4943703;28;20052;-64
2023/06/08 07:44:02;;;;;;;3.40;3.10;;;19.50;97.20;;;;;;4942379;28;20059;-62
2023/06/08 07:46:29;;;;;;;7.10;3.42;;;19.60;96.70;;;;;;4943896;28;20055;-68
2023/06/08 07:48:56;;;;;;;4.78;3.13;;;19.70;96.70;;;;;;4944650;28;20055;-72
2023/06/08 07:51:23;;;;;;;3.78;2.60;;;19.80;97.00;;;;;;4940721;28;20055;-65
2023/06/08 07:53:50;;;;;;;5.15;2.70;;;19.90;97.20;;;;;;4936158;28;20059;-65
2023/06/08 07:56:17;;;;;;;3.67;3.38;;;20.00;96.90;;;;;;4946468;28;20059;-66
2023/06/08 07:58:44;;;;;;;9.15;4.30;;;20.00;97.20;;;;;;4935629;28;20153;-67
2023/06/08 08:01:11;;;;;;;4.45;3.63;;;20.20;97.20;;;;;;4943192;28;20063;-65
2023/06/08 08:03:38;;;;;;;4.40;3.92;;;20.20;97.40;;;;;;4937067;28;20446;-63
2023/06/08 08:06:06;;;;;;;6.03;3.78;;;20.20;97.50;;;;;;4943370;28;20126;-63
2023/06/08 08:08:33;;;;;;;6.28;4.32;;;20.30;98.10;;;;;;4943999;28;20083;-65
2023/06/08 08:11:00;;;;;;;3.88;3.08;;;20.40;97.40;;;;;;4944789;28;20129;-66
2023/06/08 08:13:28;;;;;;;5.57;3.50;;;20.50;97.40;;;;;;4935782;28;20059;-61
2023/06/08 08:15:55;;;;;;;5.07;3.15;;;20.50;97.40;;;;;;4938035;28;20052;-64
2023/06/08 08:18:22;;;;;;;4.15;2.88;;;20.70;97.60;;;;;;4939190;28;20062;-68
2023/06/08 08:20:49;;;;;;;6.63;3.45;;;20.70;96.80;;;;;;4946094;28;20054;-66
2023/06/08 08:23:16;;;;;;;4.75;3.67;;;20.80;96.10;;;;;;4935256;28;20086;-61
2023/06/08 08:25:43;;;;;;;6.38;2.83;;;20.80;96.60;;;;;;4938567;28;20043;-69
2023/06/08 08:28:10;;;;;;;3.25;2.78;;;21.00;97.00;;;;;;4938969;28;20126;-67
2023/06/08 08:30:37;;;;;;;4.72;3.30;;;21.10;95.90;;;;;;4941016;28;20514;-61
2023/06/08 08:33:04;;;;;;;4.35;3.30;;;21.10;95.90;;;;;;4940765;28;20063;-64
2023/06/08 08:35:31;;;;;;;9.88;3.80;;;21.20;95.50;;;;;;4940009;28;20375;-66
2023/06/08 08:37:58;;;;;;;8.63;3.38;;;21.30;94.50;;;;;;4937279;28;20170;-66
2023/06/08 08:40:25;;;;;;;11.40;3.65;;;21.40;94.20;;;;;;4937164;28;20058;-62
2023/06/08 08:43:15;;;;;;;8.50;3.45;;;21.30;93.60;;;;;;4938050;28;20442;-63
2023/06/08 08:45:45;;;;;;;3.88;3.08;;;21.20;94.00;;;;;;4944498;28;20043;-71
2023/06/08 08:48:15;;;;;;;6.30;3.28;;;21.20;94.10;;;;;;4940426;28;20054;-69
2023/06/08 08:50:43;;;;;;;3.97;3.67;;;21.40;94.20;;;;;;4946166;28;20047;-68
2023/06/08 08:53:11;;;;;;;5.57;2.70;;;21.60;94.30;;;;;;4937581;28;20065;-60
2023/06/08 08:55:41;;;;;;;3.20;2.90;;;21.60;93.60;;;;;;4945064;28;20165;-64
2023/06/08 08:58:09;;;;;;;6.15;3.97;;;21.70;93.20;;;;;;4936401;28;20486;-63
2023/06/08 09:00:37;;;;;;;4.95;3.30;;;21.80;93.50;;;;;;4941649;28;20052;-63
2023/06/08 09:03:05;;;;;;;4.20;2.58;;;21.90;92.70;;;;;;4939771;28;20093;-69
2023/06/08 09:05:32;;;;;;;5.82;3.50;;;21.80;92.90;;;;;;4942358;28;20126;-68
2023/06/08 09:07:58;;;;;;;8.40;3.40;;;21.80;92.40;;;;;;4936524;28;20110;-64
2023/06/08 09:10:26;;;;;;;7.32;2.90;;;21.70;92.10;;;;;;4937937;28;20091;-61
2023/06/08 09:12:55;;;;;;;8.35;4.47;;;21.80;92.60;;;;;;4936016;28;20062;-60
2023/06/08 09:15:29;;;;;;;4.82;2.88;;;21.90;92.10;;;;;;4941676;28;20062;-64
2023/06/08 09:17:56;;;;;;;8.00;3.88;;;21.90;91.80;;;;;;4941454;28;20141;-66
2023/06/08 09:20:32;;;;;;;6.28;3.47;;;22.10;91.80;;;;;;4944009;28;20425;-68
2023/06/08 09:23:15;;;;;;;5.72;3.25;;;22.20;91.40;;;;;;4930230;28;20059;-61
2023/06/08 09:25:43;;;;;;;5.63;3.25;;;22.40;91.50;;;;;;4933272;28;20044;-68
2023/06/08 09:28:17;;;;;;;6.75;3.28;;;22.40;91.30;;;;;;4941275;28;20497;-64
2023/06/08 09:30:45;;;;;;;6.63;3.00;;;22.40;91.30;;;;;;4943927;28;20043;-69
2023/06/08 09:33:20;;;;;;;9.40;3.15;;;22.40;93.00;;;;;;4943356;28;20051;-65
2023/06/08 09:36:03;;;;;;;3.15;2.50;;;22.40;92.60;;;;;;4940952;28;20082;-78
2023/06/08 09:38:32;;;;;;;4.28;3.35;;;22.40;92.90;;;;;;4940605;28;20063;-61
2023/06/08 09:41:21;;;;;;;6.18;2.88;;;22.40;92.60;;;;;;4946764;28;20055;-61
2023/06/08 09:43:51;;;;;;;4.57;3.42;;;22.20;92.80;;;;;;4941720;28;20137;-63
2023/06/08 09:46:34;;;;;;;6.43;3.15;;;22.10;93.20;;;;;;4951884;28;20059;-63
2023/06/08 09:49:11;;;;;;;5.00;2.85;;;22.10;93.30;;;;;;4943529;28;20142;-60
2023/06/08 09:51:41;;;;;;;3.58;3.25;;;22.10;93.90;;;;;;4938704;28;20089;-67
2023/06/08 09:54:11;;;;;;;5.37;2.97;;;22.10;93.50;;;;;;4942399;28;20082;-63
2023/06/08 09:56:39;;;;;;;5.40;3.03;;;22.20;93.30;;;;;;4944886;28;20505;-65
2023/06/08 09:59:10;;;;;;;5.72;3.65;;;22.20;93.30;;;;;;4947184;28;20540;-62
2023/06/08 10:02:09;;;;;;;5.18;3.28;;;22.20;93.30;;;;;;4938492;28;20051;-63
2023/06/08 10:04:40;;;;;;;6.45;3.03;;;22.30;92.90;;;;;;4940986;28;20508;-71
2023/06/08 10:07:14;;;;;;;4.53;3.10;;;22.20;92.80;;;;;;4939856;28;20051;-65
2023/06/08 10:09:44;;;;;;;5.00;3.00;;;22.20;93.00;;;;;;4943954;28;20062;-67
2023/06/08 10:12:14;;;;;;;5.20;3.30;;;22.20;93.00;;;;;;4942922;28;20059;-65
2023/06/08 10:14:42;;;;;;;7.45;3.50;;;22.40;93.30;;;;;;4945701;28;20110;-70
2023/06/08 10:17:10;;;;;;;6.10;3.17;;;22.40;93.10;;;;;;4933192;28;20194;-67
2023/06/08 10:19:38;;;;;;;4.30;2.97;;;22.40;93.30;;;;;;4945769;28;20129;-64
2023/06/08 10:22:05;;;;;;;4.03;3.20;;;22.50;93.60;;;;;;4939866;28;20107;-64
2023/06/08 10:24:34;;;;;;;3.92;3.15;;;22.60;93.00;;;;;;4941198;28;20066;-69
2023/06/08 10:27:28;;;;;;;5.30;3.47;;;22.60;93.30;;;;;;4936803;28;20134;-65
2023/06/08 10:30:00;;;;;;;4.03;3.63;;;22.50;93.10;;;;;;4941636;28;20055;-69
2023/06/08 10:32:32;;;;;;;4.85;3.42;;;22.40;93.10;;;;;;4935204;28;20206;-66
2023/06/08 10:35:05;;;;;;;5.05;3.53;;;22.40;93.00;;;;;;4947360;28;20784;-62
2023/06/08 10:37:37;;;;;;;5.03;3.28;;;22.30;93.30;;;;;;4942639;28;20553;-73
2023/06/08 10:40:08;;;;;;;5.72;4.18;;;22.20;93.20;;;;;;4938403;28;20098;-69
2023/06/08 10:42:36;;;;;;;3.90;3.22;;;22.20;93.10;;;;;;4948902;28;20051;-64
2023/06/08 10:45:04;;;;;;;3.40;3.05;;;22.10;93.30;;;;;;4938439;28;20055;-64
2023/06/08 10:47:36;;;;;;;5.03;2.95;;;22.20;92.80;;;;;;4937658;28;20056;-62
2023/06/08 10:50:09;;;;;;;4.88;3.67;;;22.50;93.10;;;;;;4939973;28;20126;-63
2023/06/08 10:52:45;;;;;;;3.55;3.10;;;22.50;92.20;;;;;;4933645;28;20129;-70
2023/06/08 10:55:15;;;;;;;6.13;2.92;;;22.50;92.10;;;;;;4937959;28;20047;-62
2023/06/08 10:57:50;;;;;;;5.18;3.78;;;22.40;92.80;;;;;;4951121;28;20044;-63
2023/06/08 11:00:27;;;;;;;6.60;5.38;;;22.40;92.90;;;;;;4939757;28;20192;-68
2023/06/08 11:03:06;;;;;;;7.30;3.42;;;22.40;92.60;;;;;;4938244;28;20090;-69
2023/06/08 11:05:38;;;;;;;5.50;4.03;;;22.60;93.00;;;;;;4940473;28;20083;-74
2023/06/08 11:08:10;;;;;;;3.47;3.17;;;22.80;91.80;;;;;;4936205;28;20055;-65
2023/06/08 11:10:41;;;;;;;3.63;3.17;;;22.90;92.00;;;;;;4937459;28;20058;-66
2023/06/08 11:13:13;;;;;;;4.38;2.97;;;22.90;91.90;;;;;;4938441;28;20055;-63
2023/06/08 11:15:42;;;;;;;4.32;3.53;;;22.90;91.90;;;;;;4941936;28;20055;-65
2023/06/08 11:18:10;;;;;;;6.10;3.45;;;22.90;92.10;;;;;;4951158;28;20054;-69
2023/06/08 11:20:40;;;;;;;5.78;3.95;;;22.90;91.80;;;;;;4939327;28;20055;-68
2023/06/08 11:23:10;;;;;;;3.90;3.15;;;22.90;92.10;;;;;;4937463;28;20051;-66
2023/06/08 11:25:37;;;;;;;3.15;2.85;;;23.00;91.80;;;;;;4932290;28;20102;-67
2023/06/08 11:28:07;;;;;;;8.68;4.47;;;23.00;92.10;;;;;;4934191;28;20880;-63
2023/06/08 11:30:35;;;;;;;4.63;3.60;;;23.10;91.70;;;;;;4937626;28;20059;-63
2023/06/08 11:33:09;;;;;;;3.47;3.05;;;23.10;91.60;;;;;;4934729;28;20661;-66
2023/06/08 11:35:36;;;;;;;7.30;3.60;;;23.10;91.90;;;;;;4939248;28;20493;-68
2023/06/08 11:38:03;;;;;;;3.92;3.53;;;23.20;91.40;;;;;;4937316;28;20099;-64
2023/06/08 11:40:31;;;;;;;6.43;3.35;;;23.30;91.00;;;;;;4941091;28;20581;-72
2023/06/08 11:43:00;;;;;;;4.30;3.00;;;23.40;91.10;;;;;;4935551;28;20147;-71
2023/06/08 11:45:28;;;;;;;5.15;3.22;;;23.10;91.60;;;;;;4942058;28;20567;-63
2023/06/08 11:47:57;;;;;;;7.35;3.90;;;23.30;92.40;;;;;;4940909;28;20067;-65
2023/06/08 11:50:46;;;;;;;3.97;3.40;;;23.50;92.10;;;;;;4937098;28;20055;-69
2023/06/08 11:53:15;;;;;;;3.85;3.50;;;23.50;91.50;;;;;;4929294;28;20055;-62
2023/06/08 11:55:45;;;;;;;7.00;3.17;;;23.40;91.90;;;;;;4936809;28;20047;-62
2023/06/08 11:58:14;;;;;;;6.25;3.35;;;23.30;92.00;;;;;;4927328;28;20051;-69
2023/06/08 12:00:41;;;;;;;4.47;3.10;;;23.30;91.80;;;;;;4932904;28;20381;-76
2023/06/08 12:03:09;;;;;;;5.63;3.40;;;23.30;91.40;;;;;;4928734;28;20142;-68
2023/06/08 12:05:37;;;;;;;4.53;3.05;;;23.30;90.80;;;;;;4938172;28;20080;-68
2023/06/08 12:08:14;;;;;;;4.63;3.28;;;23.20;91.40;;;;;;4937429;28;20147;-64
2023/06/08 12:10:46;;;;;;;5.05;3.85;;;23.20;91.30;;;;;;4938159;28;20535;-70
2023/06/08 12:13:15;;;;;;;4.07;3.17;;;23.20;91.50;;;;;;4932712;28;20463;-62
2023/06/08 12:15:52;;;;;;;9.25;4.60;;;23.30;91.40;;;;;;4943450;28;20051;-74
2023/06/08 12:18:21;;;;;;;5.68;3.88;;;23.40;90.80;;;;;;4934488;28;20055;-65
2023/06/08 12:20:52;;;;;;;4.53;3.22;;;23.50;89.20;;;;;;4941248;28;20063;-64
2023/06/08 12:23:20;;;;;;;4.00;3.25;;;23.60;90.00;;;;;;4940531;28;20105;-62
2023/06/08 12:25:51;;;;;;;3.65;3.20;;;23.60;89.90;;;;;;4935723;28;20067;-64
2023/06/08 12:28:20;;;;;;;5.80;4.53;;;23.60;90.40;;;;;;4952292;28;20061;-71
2023/06/08 12:30:47;;;;;;;5.60;2.97;;;23.70;90.10;;;;;;4937716;28;20501;-67
2023/06/08 12:33:18;;;;;;;4.35;3.42;;;23.60;90.90;;;;;;4950481;28;20047;-69
2023/06/08 12:35:45;;;;;;;5.50;3.88;;;23.60;91.00;;;;;;4937744;28;20130;-63
2023/06/08 12:38:12;;;;;;;3.35;3.03;;;23.50;90.80;;;;;;4938753;28;20043;-69
2023/06/08 12:40:43;;;;;;;10.88;2.88;;;23.50;91.00;;;;;;4942760;28;20509;-69
2023/06/08 12:43:10;;;;;;;4.40;3.20;;;23.50;91.20;;;;;;4933362;28;20494;-63
2023/06/08 12:45:37;;;;;;;4.90;3.50;;;23.40;91.70;;;;;;4942277;28;20059;-70
2023/06/08 12:48:04;;;;;;;4.55;2.97;;;23.60;91.80;;;;;;4944542;28;20051;-66
2023/06/08 12:50:32;;;;;;;4.78;3.65;;;23.80;91.20;;;;;;4937079;28;20060;-65
2023/06/08 12:52:59;;;;;;;2.90;2.60;;;23.70;91.30;;;;;;4927677;28;20043;-76
2023/06/08 12:55:26;;;;;;;4.97;3.60;;;23.70;91.10;;;;;;4936810;28;20083;-70
2023/06/08 12:57:53;;;;;;;5.03;2.60;;;23.80;91.10;;;;;;4935495;28;20466;-66
2023/06/08 13:00:22;;;;;;;3.67;2.50;;;23.90;90.90;;;;;;4935275;28;20050;-62